Time;durP1;ratioP1;P1;durP2;ratioP2;P2;SDS_P1;SDS_P2;PMS_P1;PMS_P2;Temp;Humidity;BMP_temperature;BMP_pressure;BME280_temperature;BME280_humidity;BME280_pressure;Samples;Min_cycle;Max_cycle;Signal;HPM_P1;HPM_P2
2022/04/16 13:07:33;;;;;;;1.17;1.07;;;;;;;13.19;36.58;101682.28;3552538;77;20981;-82
2022/04/16 13:12:25;;;;;;;2.52;1.90;;;;;;;13.59;34.64;101691.41;3539106;78;21061;-83
2022/04/16 13:17:17;;;;;;;2.10;1.40;;;;;;;12.81;34.02;101692.75;3528622;77;20919;-82
2022/04/16 13:22:09;;;;;;;1.30;1.20;;;;;;;12.11;35.80;101701.02;3509923;78;21535;-81
2022/04/16 13:27:00;;;;;;;1.57;1.47;;;;;;;13.34;35.24;101690.48;3466161;78;21662;-82
2022/04/16 13:31:52;;;;;;;1.53;1.43;;;;;;;13.33;35.44;101693.94;3526156;78;20933;-82
2022/04/16 13:36:45;;;;;;;2.85;1.37;;;;;;;12.36;34.75;101701.23;3507856;79;22774;-81
2022/04/16 13:41:39;;;;;;;1.73;1.30;;;;;;;12.40;35.82;101701.75;3479760;80;20979;-82
2022/04/16 13:46:30;;;;;;;2.02;1.82;;;;;;;12.87;34.81;101690.27;3494954;78;21941;-81
2022/04/16 13:51:21;;;;;;;1.82;1.60;;;;;;;13.25;34.68;101679.81;3488812;79;20963;-80
2022/04/16 13:56:12;;;;;;;1.50;1.40;;;;;;;13.34;34.14;101680.03;3489500;78;22134;-82
2022/04/16 14:01:03;;;;;;;2.57;1.47;;;;;;;12.69;33.91;101692.45;3495539;78;21029;-81
2022/04/16 14:05:54;;;;;;;2.45;1.20;;;;;;;12.35;34.19;101695.54;3477563;79;22030;-81
2022/04/16 14:10:47;;;;;;;1.57;1.47;;;;;;;12.18;34.31;101706.86;3516268;78;21677;-80
2022/04/16 14:15:38;;;;;;;1.35;1.25;;;;;;;12.74;34.80;101695.63;3542848;78;20947;-81
2022/04/16 14:20:30;;;;;;;1.62;1.52;;;;;;;13.35;33.77;101680.48;3506430;78;20994;-81
2022/04/16 14:25:21;;;;;;;1.30;1.20;;;;;;;13.75;33.80;101680.83;3471116;79;21010;-81
2022/04/16 14:30:13;;;;;;;2.42;1.30;;;;;;;12.88;34.12;101688.13;3531823;78;21074;-81
2022/04/16 14:35:05;;;;;;;2.62;1.95;;;;;;;12.07;34.66;101696.11;3508187;78;20975;-81
2022/04/16 14:39:57;;;;;;;3.40;1.52;;;;;;;11.49;35.09;101695.36;3468351;77;20998;-81
2022/04/16 14:44:52;;;;;;;1.87;1.62;;;;;;;11.20;35.67;101691.92;3466729;78;22630;-81
2022/04/16 14:49:44;;;;;;;1.62;1.50;;;;;;;11.61;35.40;101692.24;3437303;81;20977;-81
2022/04/16 14:54:35;;;;;;;2.25;1.50;;;;;;;12.23;35.54;101686.09;3385459;82;20967;-81
2022/04/16 14:59:26;;;;;;;1.82;1.42;;;;;;;12.06;35.08;101689.58;3427564;81;21625;-81
2022/04/16 15:04:19;;;;;;;1.37;1.27;;;;;;;11.60;34.99;101693.06;3429445;81;20966;-81
2022/04/16 15:09:10;;;;;;;2.30;1.30;;;;;;;11.54;35.37;101698.12;3499491;80;21995;-81
2022/04/16 15:14:03;;;;;;;1.47;1.33;;;;;;;12.10;35.60;101695.33;3429024;80;20915;-80
2022/04/16 15:18:56;;;;;;;2.12;1.52;;;;;;;12.13;34.69;101697.59;3452746;80;21688;-81
2022/04/16 15:23:47;;;;;;;1.92;1.72;;;;;;;11.45;34.72;101702.20;3379406;80;20928;-81
2022/04/16 15:28:38;;;;;;;2.47;1.62;;;;;;;11.00;35.38;101706.90;3334013;82;20991;-81
2022/04/16 15:33:29;;;;;;;3.60;1.40;;;;;;;11.22;35.56;101703.25;3469894;80;21012;-80
2022/04/16 15:38:22;;;;;;;1.82;1.32;;;;;;;10.76;35.79;101704.42;3451399;80;20960;-81
2022/04/16 15:43:13;;;;;;;1.85;1.75;;;;;;;10.33;35.99;101716.02;3453632;80;21606;-80
2022/04/16 15:48:05;;;;;;;1.80;1.70;;;;;;;11.08;35.90;101707.16;3443100;80;21152;-81
2022/04/16 15:52:56;;;;;;;1.70;1.60;;;;;;;11.08;35.90;101707.16;3416706;80;21347;-79
2022/04/16 15:57:48;;;;;;;1.40;1.25;;;;;;;11.07;35.12;101708.89;3491330;80;21152;-81
2022/04/16 16:02:39;;;;;;;2.33;1.43;;;;;;;10.25;35.62;101712.70;3420213;80;20899;-80
2022/04/16 16:07:33;;;;;;;1.90;1.70;;;;;;;10.25;35.62;101712.70;3427323;80;20986;-78
2022/04/16 16:12:24;;;;;;;3.08;2.55;;;;;;;10.06;36.00;101724.59;3439227;80;21422;-86
2022/04/16 16:17:16;;;;;;;1.65;1.55;;;;;;;10.15;36.67;101719.71;3436610;80;21243;-79
2022/04/16 16:22:08;;;;;;;1.92;1.60;;;;;;;10.21;36.49;101712.54;3446109;80;21044;-84
2022/04/16 16:27:00;;;;;;;2.42;2.02;;;;;;;10.00;36.77;101721.80;3445647;80;20952;-81
2022/04/16 16:31:51;;;;;;;2.55;1.90;;;;;;;9.90;37.03;101713.65;3355319;81;20953;-83
2022/04/16 16:36:43;;;;;;;2.27;2.08;;;;;;;9.80;37.16;101707.67;3429140;82;21635;-84
2022/04/16 16:41:35;;;;;;;2.12;1.70;;;;;;;9.82;37.20;101712.90;3437686;80;21010;-86
2022/04/16 16:46:27;;;;;;;2.62;1.75;;;;;;;9.61;37.45;101716.92;3419144;80;21183;-83
2022/04/16 16:51:21;;;;;;;2.98;2.30;;;;;;;9.32;37.63;101723.20;3428937;80;21053;-85
2022/04/16 16:56:12;;;;;;;2.37;2.17;;;;;;;9.13;38.02;101726.37;3436731;80;21351;-82
2022/04/16 17:01:04;;;;;;;3.20;1.93;;;;;;;8.93;38.35;101727.31;3410498;81;21081;-81
2022/04/16 17:05:55;;;;;;;4.42;4.08;;;;;;;8.84;38.71;101743.38;3423509;81;21334;-82
2022/04/16 17:10:46;;;;;;;3.27;2.35;;;;;;;8.75;39.32;101749.50;3414232;81;22059;-82
2022/04/16 17:20:48;;;;;;;5.05;4.00;;;;;;;8.54;39.30;101753.38;3488357;80;20991;-82
2022/04/16 17:25:39;;;;;;;4.17;2.55;;;;;;;8.30;39.53;101763.54;3431047;81;21014;-83
2022/04/16 17:30:30;;;;;;;3.25;1.85;;;;;;;8.30;39.53;101763.54;3379274;81;20985;-82
2022/04/16 17:35:21;;;;;;;1.98;1.77;;;;;;;8.19;40.02;101770.84;3438628;81;22106;-82
2022/04/16 17:40:13;;;;;;;3.22;2.45;;;;;;;8.02;40.50;101784.37;3410720;79;21001;-83
2022/04/16 17:45:05;;;;;;;2.47;2.27;;;;;;;8.02;40.50;101784.37;3385520;81;20953;-82
2022/04/16 17:49:57;;;;;;;2.98;2.40;;;;;;;7.95;40.75;101778.02;3335796;81;21100;-83
2022/04/16 17:54:48;;;;;;;7.15;4.67;;;;;;;7.90;40.95;101787.28;3372706;80;21245;-82
2022/04/16 17:59:39;;;;;;;4.40;3.30;;;;;;;7.83;41.25;101795.59;3407792;82;21170;-82
2022/04/16 18:04:31;;;;;;;7.10;4.42;;;;;;;7.73;41.49;101797.31;3439857;81;21882;-81
2022/04/16 18:09:23;;;;;;;10.88;6.75;;;;;;;7.63;42.08;101798.57;3385062;81;20922;-81
2022/04/16 18:14:14;;;;;;;13.40;8.98;;;;;;;7.54;42.36;101802.91;3428352;80;20955;-80
2022/04/16 18:19:05;;;;;;;7.72;4.53;;;;;;;7.41;42.47;101813.52;3413852;80;20951;-81
2022/04/16 18:23:57;;;;;;;4.87;3.20;;;;;;;7.21;43.52;101819.91;3390503;81;22600;-81
2022/04/16 18:28:48;;;;;;;5.92;3.77;;;;;;;6.99;44.24;101819.28;3363485;80;20980;-81
2022/04/16 18:33:40;;;;;;;5.12;3.80;;;;;;;6.77;44.75;101822.90;3457417;80;20950;-81
2022/04/16 18:38:32;;;;;;;8.53;5.70;;;;;;;6.60;45.98;101828.11;3487135;80;20950;-81
2022/04/16 18:43:24;;;;;;;12.78;7.75;;;;;;;6.45;46.66;101833.36;3443767;81;21626;-81
2022/04/16 18:48:15;;;;;;;11.10;8.10;;;;;;;6.30;47.03;101832.58;3364976;81;21003;-83
2022/04/16 18:53:06;;;;;;;10.50;7.42;;;;;;;6.17;48.09;101835.31;3408131;81;20988;-82
2022/04/16 18:57:57;;;;;;;12.80;9.55;;;;;;;6.02;48.48;101844.02;3476917;81;20913;-82
2022/04/16 19:07:59;;;;;;;6.87;5.85;;;;;;;5.85;49.41;101836.64;3246576;86;21094;-82
2022/04/16 19:12:50;;;;;;;7.35;4.33;;;;;;;5.75;49.69;101847.67;3202170;86;21070;-82
2022/04/16 19:17:42;;;;;;;6.95;4.30;;;;;;;5.65;50.13;101849.75;3299161;84;21021;-83
2022/04/16 19:22:33;;;;;;;5.33;4.53;;;;;;;5.60;50.56;101852.48;3299118;84;21085;-82
2022/04/16 19:27:24;;;;;;;8.40;4.95;;;;;;;5.57;50.73;101852.72;3293566;83;21360;-82
2022/04/16 19:32:15;;;;;;;6.25;4.30;;;;;;;5.56;51.25;101846.64;3244922;85;21565;-82
2022/04/16 19:37:06;;;;;;;9.25;7.22;;;;;;;5.57;50.60;101854.88;3345106;80;21970;-82
2022/04/16 19:41:58;;;;;;;12.58;8.25;;;;;;;5.66;50.46;101859.25;3380058;80;20975;-83
2022/04/16 19:46:49;;;;;;;10.55;6.35;;;;;;;5.76;49.99;101852.02;3368264;80;20976;-83
2022/04/16 19:51:41;;;;;;;7.00;5.20;;;;;;;5.83;50.31;101854.13;3400242;80;21010;-82
2022/04/16 19:56:32;;;;;;;7.37;5.25;;;;;;;5.86;51.31;101855.17;3371605;81;21422;-82
2022/04/16 20:01:24;;;;;;;7.25;6.05;;;;;;;5.88;51.31;101857.84;3366289;80;21605;-83
2022/04/16 20:06:15;;;;;;;9.55;5.47;;;;;;;5.87;51.26;101862.12;3393110;80;20955;-82
2022/04/16 20:11:06;;;;;;;10.58;7.35;;;;;;;5.87;51.59;101856.97;3415035;80;20995;-82
2022/04/16 20:16:00;;;;;;;8.70;6.15;;;;;;;5.88;50.90;101863.01;3351805;82;21032;-83
2022/04/16 20:20:51;;;;;;;7.85;5.37;;;;;;;5.88;50.51;101863.01;3515014;79;20995;-83
2022/04/16 20:25:44;;;;;;;10.32;4.97;;;;;;;5.90;50.65;101866.55;3481822;79;21442;-82
2022/04/16 20:30:36;;;;;;;8.73;5.97;;;;;;;5.93;50.66;101865.44;3471024;79;20998;-83
2022/04/16 20:35:29;;;;;;;8.28;5.78;;;;;;;5.99;50.26;101872.66;3460146;79;21484;-82
2022/04/16 20:45:30;;;;;;;9.73;6.08;;;;;;;6.00;50.24;101872.75;3512672;78;20987;-81
2022/04/16 20:50:22;;;;;;;8.60;6.25;;;;;;;5.95;50.13;101872.86;3524101;80;21560;-81
2022/04/16 20:55:13;;;;;;;10.55;6.60;;;;;;;5.92;50.26;101871.43;3491152;78;21003;-81
2022/04/16 21:00:05;;;;;;;19.12;14.50;;;;;;;5.87;50.71;101863.83;3475832;79;20936;-82
2022/04/16 21:04:56;;;;;;;13.00;9.78;;;;;;;5.82;50.58;101861.40;3529709;79;21030;-81
2022/04/16 21:09:47;;;;;;;9.88;7.12;;;;;;;5.73;51.23;101869.11;3558377;78;21464;-82
2022/04/16 21:14:40;;;;;;;9.35;6.62;;;;;;;5.61;51.08;101868.43;3507597;79;22552;-81
2022/04/16 21:19:31;;;;;;;11.45;7.95;;;;;;;5.56;51.39;101861.24;3482579;79;21646;-81
2022/04/16 21:24:23;;;;;;;10.53;6.93;;;;;;;5.37;52.12;101870.95;3497050;77;22470;-82
2022/04/16 21:29:14;;;;;;;14.23;8.00;;;;;;;5.37;52.12;101870.95;3482133;78;21331;-82
2022/04/16 21:34:05;;;;;;;8.80;6.10;;;;;;;5.18;52.09;101871.58;3468502;79;20948;-83
2022/04/16 21:38:58;;;;;;;8.93;4.93;;;;;;;5.04;52.24;101869.48;3498639;78;20928;-81
2022/04/16 21:43:49;;;;;;;7.75;5.45;;;;;;;4.96;52.33;101872.52;3523509;79;21223;-82
2022/04/16 21:48:40;;;;;;;7.85;5.62;;;;;;;4.87;52.54;101871.98;3462787;78;20962;-81
2022/04/16 21:53:32;;;;;;;8.88;5.35;;;;;;;4.70;52.73;101877.81;3517653;79;20904;-82
2022/04/16 21:58:24;;;;;;;8.48;5.03;;;;;;;4.70;52.73;101877.81;3527111;79;22130;-82
2022/04/16 22:03:15;;;;;;;9.53;5.85;;;;;;;4.59;52.97;101879.35;3518779;78;21433;-81
2022/04/16 22:08:08;;;;;;;9.95;5.33;;;;;;;4.51;53.22;101885.75;3440853;79;20928;-81
2022/04/16 22:12:59;;;;;;;11.35;6.03;;;;;;;4.45;53.46;101882.78;3475553;78;21489;-81
2022/04/16 22:17:50;;;;;;;7.65;4.90;;;;;;;4.36;53.46;101879.66;3495153;78;20999;-82
2022/04/16 22:22:41;;;;;;;7.22;4.70;;;;;;;4.33;53.74;101884.64;3535617;78;21450;-81
2022/04/16 22:27:33;;;;;;;7.17;4.40;;;;;;;4.32;53.83;101889.29;3502888;79;21713;-81
2022/04/16 22:32:29;;;;;;;6.37;3.87;;;;;;;4.31;53.85;101890.98;3485821;79;21584;-82
2022/04/16 22:42:30;;;;;;;7.37;4.47;;;;;;;4.22;54.10;101889.14;3453654;80;21477;-81
2022/04/16 22:47:21;;;;;;;5.65;3.98;;;;;;;4.18;54.16;101893.58;3483318;79;20956;-81
2022/04/16 22:52:12;;;;;;;6.67;4.47;;;;;;;4.12;54.24;101890.23;3506844;77;22424;-81
2022/04/16 22:57:04;;;;;;;7.57;4.57;;;;;;;4.01;54.45;101892.55;3517659;78;20964;-81
2022/04/16 23:01:58;;;;;;;6.28;4.42;;;;;;;3.94;54.72;101889.11;3464267;78;21194;-81
2022/04/16 23:06:49;;;;;;;6.35;4.42;;;;;;;3.86;54.76;101886.03;3494266;79;20982;-81
2022/04/16 23:11:42;;;;;;;6.45;4.10;;;;;;;3.80;55.11;101889.11;3439732;79;20971;-81
2022/04/16 23:16:39;;;;;;;7.55;4.47;;;;;;;3.65;55.15;101886.88;3505147;78;20946;-81
2022/04/16 23:21:32;;;;;;;6.72;4.60;;;;;;;3.51;55.46;101891.53;3528503;78;20943;-81
2022/04/16 23:26:24;;;;;;;7.70;4.90;;;;;;;3.34;55.81;101878.45;3477884;79;21611;-81
2022/04/16 23:31:15;;;;;;;11.48;6.25;;;;;;;3.26;56.08;101874.51;3501393;78;21530;-81
2022/04/16 23:36:06;;;;;;;15.10;7.83;;;;;;;3.17;56.33;101872.62;3430528;80;20990;-81
2022/04/16 23:40:58;;;;;;;16.57;8.80;;;;;;;3.07;56.38;101871.52;3481315;79;21049;-81
2022/04/16 23:50:59;;;;;;;15.43;8.70;;;;;;;2.92;57.06;101878.72;3489265;79;21469;-81
2022/04/16 23:55:50;;;;;;;12.98;7.80;;;;;;;2.84;57.14;101874.73;3510256;79;20986;-81
